createdAt,value
2022-11-08T00:00:44.178Z,6.45
2022-11-08T00:03:12.600Z,5.90
2022-11-08T00:05:58.173Z,6.65
2022-11-08T00:08:43.663Z,5.53
2022-11-08T00:11:30.863Z,6.75
2022-11-08T00:13:59.568Z,6.63
2022-11-08T00:16:28.156Z,5.97
2022-11-08T00:18:56.423Z,6.07
2022-11-08T00:21:24.639Z,6.28
2022-11-08T00:23:52.862Z,6.63
2022-11-08T00:26:22.651Z,7.15
2022-11-08T00:28:50.873Z,6.00
2022-11-08T00:31:19.214Z,6.25
2022-11-08T00:33:47.642Z,5.32
2022-11-08T00:36:15.983Z,6.95
2022-11-08T00:38:44.396Z,6.85
2022-11-08T00:41:12.680Z,7.03
2022-11-08T00:43:42.527Z,6.70
2022-11-08T00:46:10.991Z,7.25
2022-11-08T00:48:39.668Z,7.10
2022-11-08T00:51:09.791Z,6.85
2022-11-08T00:53:38.594Z,6.57
2022-11-08T00:56:08.395Z,7.43
2022-11-08T00:58:36.680Z,8.60
2022-11-08T01:01:12.857Z,6.85
2022-11-08T01:03:41.394Z,6.88
2022-11-08T01:06:11.401Z,8.15
2022-11-08T01:08:40.076Z,7.15
2022-11-08T01:11:12.335Z,8.32
2022-11-08T01:13:40.761Z,6.72
2022-11-08T01:16:12.919Z,5.68
2022-11-08T01:18:41.630Z,6.25
2022-11-08T01:21:11.169Z,6.70
2022-11-08T01:23:39.743Z,6.93
2022-11-08T01:26:10.343Z,5.25
2022-11-08T01:28:38.867Z,5.07
2022-11-08T01:31:08.483Z,6.38
2022-11-08T01:33:38.866Z,7.15
2022-11-08T01:36:08.128Z,5.90
2022-11-08T01:38:36.761Z,4.97
2022-11-08T01:41:05.556Z,5.28
2022-11-08T01:43:41.100Z,5.43
2022-11-08T01:46:34.963Z,5.32
2022-11-08T01:49:35.899Z,3.78
2022-11-08T01:52:32.237Z,4.97
2022-11-08T01:55:09.966Z,4.65
2022-11-08T01:57:44.074Z,3.80
2022-11-08T02:00:13.675Z,3.47
2022-11-08T02:02:44.276Z,3.65
2022-11-08T02:05:30.559Z,3.40
2022-11-08T02:08:04.804Z,4.72
2022-11-08T02:10:36.929Z,3.53
2022-11-08T02:13:13.318Z,2.97
2022-11-08T02:15:42.878Z,3.65
2022-11-08T02:18:11.239Z,3.65
2022-11-08T02:20:42.080Z,4.07
2022-11-08T02:23:18.785Z,4.15
2022-11-08T02:25:48.870Z,5.30
2022-11-08T02:28:17.809Z,4.03
2022-11-08T02:30:46.307Z,3.70
2022-11-08T02:33:19.330Z,3.60
2022-11-08T02:35:50.657Z,4.32
2022-11-08T02:38:20.098Z,4.32
2022-11-08T02:40:52.002Z,4.75
2022-11-08T02:43:20.554Z,4.78
2022-11-08T02:45:50.547Z,4.95
2022-11-08T02:48:19.870Z,3.60
2022-11-08T02:50:48.574Z,3.70
2022-11-08T02:53:17.258Z,4.40
2022-11-08T02:55:46.138Z,5.20
2022-11-08T02:58:16.517Z,4.32
2022-11-08T03:00:44.949Z,3.90
2022-11-08T03:03:14.418Z,4.13
2022-11-08T03:05:43.856Z,3.47
2022-11-08T03:08:12.101Z,3.00
2022-11-08T03:10:40.351Z,3.67
2022-11-08T03:13:08.983Z,4.07
2022-11-08T03:15:38.626Z,3.55
2022-11-08T03:18:07.277Z,4.25
2022-11-08T03:20:35.693Z,3.60
2022-11-08T03:23:05.626Z,3.65
2022-11-08T03:25:34.379Z,4.10
2022-11-08T03:28:06.382Z,3.92
2022-11-08T03:30:35.020Z,3.83
2022-11-08T03:33:05.371Z,3.95
2022-11-08T03:35:33.789Z,4.40
2022-11-08T03:38:02.241Z,4.82
2022-11-08T03:40:30.552Z,4.95
2022-11-08T03:42:58.896Z,4.78
2022-11-08T03:45:27.296Z,5.07
2022-11-08T03:47:55.546Z,5.18
2022-11-08T03:50:25.316Z,7.53
2022-11-08T03:52:55.269Z,6.60
2022-11-08T03:55:25.671Z,6.70
2022-11-08T03:57:54.206Z,5.70
2022-11-08T04:00:24.280Z,5.35
2022-11-08T04:02:52.840Z,6.95
2022-11-08T04:05:21.158Z,7.10
2022-11-08T04:07:50.862Z,7.68
2022-11-08T04:10:19.472Z,7.07
2022-11-08T04:13:05.045Z,7.95
2022-11-08T04:15:33.407Z,7.00
2022-11-08T04:18:19.300Z,7.28
2022-11-08T04:21:07.107Z,7.75
2022-11-08T04:23:40.236Z,7.05
2022-11-08T04:26:11.734Z,6.18
2022-11-08T04:28:41.511Z,7.10
2022-11-08T04:31:12.159Z,6.05
2022-11-08T04:33:40.523Z,6.55
2022-11-08T04:36:10.912Z,6.50
2022-11-08T04:38:40.578Z,5.75
2022-11-08T04:41:11.571Z,6.40
2022-11-08T04:43:39.765Z,6.40
2022-11-08T04:46:09.557Z,8.90
2022-11-08T04:48:38.252Z,10.52
2022-11-08T04:51:08.683Z,11.70
2022-11-08T04:53:36.965Z,13.18
2022-11-08T04:56:09.218Z,15.63
2022-11-08T04:58:38.981Z,14.43
2022-11-08T05:01:08.916Z,14.77
2022-11-08T05:03:37.704Z,17.08
2022-11-08T05:06:08.231Z,16.73
2022-11-08T05:08:36.501Z,16.35
2022-11-08T05:11:07.711Z,14.73
2022-11-08T05:13:36.364Z,14.77
2022-11-08T05:16:07.757Z,15.45
2022-11-08T05:18:36.505Z,14.05
2022-11-08T05:21:22.462Z,13.07
2022-11-08T05:23:51.789Z,13.68
2022-11-08T05:26:21.613Z,13.48
2022-11-08T05:28:50.182Z,12.40
2022-11-08T05:31:18.958Z,12.45
2022-11-08T05:33:47.793Z,13.20
2022-11-08T05:36:17.556Z,13.18
2022-11-08T05:38:46.224Z,13.10
2022-11-08T05:41:17.052Z,14.65
2022-11-08T05:43:48.132Z,14.07
2022-11-08T05:46:17.131Z,13.98
2022-11-08T05:48:47.060Z,13.35
2022-11-08T05:51:15.985Z,13.45
2022-11-08T05:53:44.476Z,14.02
2022-11-08T05:56:13.311Z,12.30
2022-11-08T05:58:41.572Z,11.40
2022-11-08T06:01:13.344Z,11.60
2022-11-08T06:03:41.989Z,12.15
2022-11-08T06:06:12.467Z,11.88
2022-11-08T06:08:45.017Z,12.10
2022-11-08T06:11:17.922Z,12.23
2022-11-08T06:13:46.323Z,13.02
2022-11-08T06:16:18.088Z,11.45
2022-11-08T06:18:47.097Z,13.10
2022-11-08T06:21:17.771Z,13.07
2022-11-08T06:23:46.306Z,12.70
2022-11-08T06:26:14.846Z,13.30
2022-11-08T06:28:43.100Z,13.43
2022-11-08T06:31:11.334Z,13.38
2022-11-08T06:33:41.055Z,12.48
2022-11-08T06:36:09.504Z,14.00
2022-11-08T06:38:37.769Z,14.40
2022-11-08T06:41:06.112Z,15.20
2022-11-08T06:43:34.407Z,15.95
2022-11-08T06:46:03.374Z,13.80
2022-11-08T06:48:35.926Z,16.27
2022-11-08T06:51:06.436Z,15.15
2022-11-08T06:53:35.121Z,18.08
2022-11-08T06:56:03.710Z,15.80
2022-11-08T06:58:32.513Z,16.05
2022-11-08T07:01:04.360Z,16.33
2022-11-08T07:03:32.909Z,16.95
2022-11-08T07:06:03.947Z,16.95
2022-11-08T07:08:34.050Z,16.95
2022-11-08T07:11:02.822Z,17.58
2022-11-08T07:13:31.474Z,17.15
2022-11-08T07:16:00.986Z,18.55
2022-11-08T07:18:30.106Z,18.80
2022-11-08T07:21:02.276Z,17.85
2022-11-08T07:23:30.885Z,18.63
2022-11-08T07:26:04.021Z,21.77
2022-11-08T07:28:32.954Z,21.75
2022-11-08T07:31:03.074Z,22.15
2022-11-08T07:33:32.270Z,22.50
2022-11-08T07:36:00.526Z,22.67
2022-11-08T07:38:28.806Z,21.75
2022-11-08T07:40:59.098Z,24.67
2022-11-08T07:43:30.601Z,22.35
2022-11-08T07:46:00.955Z,22.60
2022-11-08T07:48:30.761Z,21.02
2022-11-08T07:50:59.027Z,22.67
2022-11-08T07:53:27.167Z,21.52
2022-11-08T07:55:55.463Z,22.08
2022-11-08T07:58:23.938Z,21.50
2022-11-08T08:00:53.580Z,19.95
2022-11-08T08:03:22.302Z,20.80
2022-11-08T08:06:00.540Z,22.13
2022-11-08T08:08:30.414Z,22.85
2022-11-08T08:11:00.475Z,24.15
2022-11-08T08:13:29.143Z,22.70
2022-11-08T08:16:01.624Z,22.15
2022-11-08T08:18:30.887Z,23.40
2022-11-08T08:20:59.643Z,23.70
2022-11-08T08:23:28.250Z,20.85
2022-11-08T08:25:57.213Z,23.30
2022-11-08T08:28:25.470Z,22.73
2022-11-08T08:30:53.749Z,22.30
2022-11-08T08:33:30.642Z,23.20
2022-11-08T08:36:01.127Z,22.15
2022-11-08T08:38:30.306Z,23.35
2022-11-08T08:40:59.201Z,21.25
2022-11-08T08:43:28.941Z,23.15
2022-11-08T08:46:00.404Z,23.95
2022-11-08T08:48:30.426Z,23.10
2022-11-08T08:50:58.886Z,22.73
2022-11-08T08:53:27.483Z,21.33
2022-11-08T08:55:55.753Z,22.50
2022-11-08T08:58:24.481Z,22.10
2022-11-08T09:03:42.795Z,23.15
2022-11-08T09:06:11.648Z,21.92
2022-11-08T09:08:39.845Z,22.77
2022-11-08T09:11:08.073Z,21.77
2022-11-08T09:13:36.498Z,20.50
2022-11-08T09:16:05.269Z,22.88
2022-11-08T09:18:33.647Z,22.60
2022-11-08T09:21:05.503Z,21.42
2022-11-08T09:23:34.014Z,21.70
2022-11-08T09:26:03.740Z,20.88
2022-11-08T09:28:33.459Z,21.27
2022-11-08T09:31:03.823Z,20.95
2022-11-08T09:33:32.480Z,21.17
2022-11-08T09:36:02.878Z,20.92
2022-11-08T09:38:31.286Z,19.92
2022-11-08T09:41:18.800Z,20.45
2022-11-08T09:44:06.921Z,21.33
2022-11-08T09:46:40.960Z,18.77
2022-11-08T09:49:18.238Z,20.20
2022-11-08T09:51:48.647Z,22.38
2022-11-08T09:54:22.052Z,20.73
2022-11-08T09:56:52.517Z,20.05
2022-11-08T09:59:31.419Z,20.05
2022-11-08T10:01:59.921Z,20.60
2022-11-08T10:04:32.028Z,21.63
2022-11-08T10:07:13.402Z,20.15
2022-11-08T10:10:05.663Z,20.10
2022-11-08T10:12:41.814Z,21.50
2022-11-08T10:15:22.592Z,21.58
2022-11-08T10:18:31.846Z,19.05
2022-11-08T10:21:06.651Z,21.70
2022-11-08T10:23:44.042Z,21.75
2022-11-08T10:26:18.049Z,21.17
2022-11-08T10:28:51.245Z,21.85
2022-11-08T10:31:20.995Z,21.90
2022-11-08T10:33:53.228Z,22.45
2022-11-08T10:36:29.768Z,23.80
2022-11-08T10:39:04.183Z,22.35
2022-11-08T10:41:40.656Z,21.27
2022-11-08T10:44:15.472Z,20.70
2022-11-08T10:46:46.998Z,20.15
2022-11-08T10:49:20.848Z,22.13
2022-11-08T10:51:51.581Z,22.20
2022-11-08T10:54:44.072Z,21.98
2022-11-08T10:57:14.358Z,22.10
2022-11-08T10:59:43.517Z,19.52
2022-11-08T11:02:20.994Z,21.13
2022-11-08T11:04:50.046Z,19.63
2022-11-08T11:07:30.792Z,18.63
2022-11-08T11:10:18.173Z,17.88
2022-11-08T11:12:51.968Z,15.93
2022-11-08T11:15:20.312Z,16.80
2022-11-08T11:17:48.693Z,17.15
2022-11-08T11:20:22.371Z,17.55
2022-11-08T11:22:52.225Z,19.33
2022-11-08T11:25:24.250Z,18.10
2022-11-08T11:27:56.582Z,16.90
2022-11-08T11:30:29.442Z,19.33
2022-11-08T11:33:01.837Z,16.20
2022-11-08T11:35:38.797Z,17.60
2022-11-08T11:38:15.342Z,18.10
2022-11-08T11:40:48.245Z,17.13
2022-11-08T11:43:25.539Z,18.05
2022-11-08T11:45:58.133Z,18.17
2022-11-08T11:48:30.410Z,17.20
2022-11-08T11:50:59.263Z,16.50
2022-11-08T11:53:29.516Z,16.52
2022-11-08T11:56:42.337Z,17.52
2022-11-08T11:59:32.451Z,15.35
2022-11-08T12:02:42.573Z,16.02
2022-11-08T12:05:24.081Z,17.13
2022-11-08T12:07:59.714Z,16.48
2022-11-08T12:10:35.469Z,16.30
2022-11-08T12:13:14.031Z,17.38
2022-11-08T12:15:49.796Z,16.92
2022-11-08T12:18:56.949Z,17.85
2022-11-08T12:21:33.700Z,17.83
2022-11-08T12:24:20.482Z,17.80
2022-11-08T12:26:57.197Z,19.08
2022-11-08T12:29:30.901Z,17.98
2022-11-08T12:32:14.426Z,18.75
2022-11-08T12:34:54.194Z,17.30
2022-11-08T12:37:35.029Z,16.63
2022-11-08T12:40:16.062Z,16.35
2022-11-08T12:42:59.074Z,17.60
2022-11-08T12:45:49.961Z,16.42
2022-11-08T12:48:28.843Z,16.67
2022-11-08T12:51:05.873Z,17.60
2022-11-08T12:53:59.572Z,16.85
2022-11-08T12:56:34.783Z,17.30
2022-11-08T12:59:03.749Z,15.88
2022-11-08T13:01:33.629Z,17.50
2022-11-08T13:04:28.891Z,16.75
2022-11-08T13:07:01.332Z,16.48
2022-11-08T13:09:39.117Z,17.13
2022-11-08T13:12:17.611Z,16.98
2022-11-08T13:14:46.028Z,17.63
2022-11-08T13:17:18.479Z,18.80
2022-11-08T13:20:04.409Z,17.88
2022-11-08T13:22:58.892Z,18.70
2022-11-08T13:25:39.171Z,19.25
2022-11-08T13:28:39.438Z,17.83
2022-11-08T13:31:33.391Z,18.77
2022-11-08T13:34:31.252Z,18.65
2022-11-08T13:37:13.768Z,18.08
2022-11-08T13:40:03.388Z,19.35
2022-11-08T13:42:41.376Z,19.42
2022-11-08T13:45:25.666Z,18.90
2022-11-08T13:48:01.446Z,19.38
2022-11-08T13:50:55.165Z,18.90
2022-11-08T13:53:47.084Z,18.88
2022-11-08T13:56:51.153Z,19.58
2022-11-08T13:59:59.689Z,18.88
2022-11-08T14:02:45.952Z,20.52
2022-11-08T14:05:24.667Z,20.17
2022-11-08T14:08:22.940Z,21.55
2022-11-08T14:11:24.016Z,19.90
2022-11-08T14:14:09.759Z,20.65
2022-11-08T14:16:46.285Z,21.60
2022-11-08T14:19:23.840Z,20.58
2022-11-08T14:21:55.297Z,24.90
2022-11-08T14:24:26.810Z,22.60
2022-11-08T14:26:56.546Z,21.58
2022-11-08T14:29:26.004Z,22.52
2022-11-08T14:32:06.477Z,23.17
2022-11-08T14:34:36.468Z,26.75
2022-11-08T14:37:05.895Z,23.23
2022-11-08T14:39:35.922Z,23.98
2022-11-08T14:42:14.392Z,21.50
2022-11-08T14:44:45.436Z,21.52
2022-11-08T14:47:25.287Z,23.27
2022-11-08T14:49:53.789Z,21.08
2022-11-08T14:52:26.012Z,22.00
2022-11-08T14:55:04.009Z,21.20
2022-11-08T14:57:36.753Z,20.20
2022-11-08T15:00:11.529Z,21.88
2022-11-08T15:02:40.212Z,22.70
2022-11-08T15:05:24.905Z,22.65
2022-11-08T15:07:53.248Z,19.17
2022-11-08T15:10:21.836Z,21.48
2022-11-08T15:12:51.913Z,21.35
2022-11-08T15:15:23.225Z,21.08
2022-11-08T15:18:12.652Z,25.02
2022-11-08T15:20:42.616Z,22.08
2022-11-08T15:23:25.186Z,21.35
2022-11-08T15:25:58.449Z,20.27
2022-11-08T15:28:33.646Z,20.15
2022-11-08T15:31:04.485Z,23.42
2022-11-08T15:33:37.107Z,21.98
2022-11-08T15:36:13.614Z,21.23
2022-11-08T15:38:43.425Z,21.85
2022-11-08T15:41:32.985Z,21.92
2022-11-08T15:44:22.677Z,20.98
2022-11-08T15:46:51.192Z,21.10
2022-11-08T15:49:24.126Z,21.92
2022-11-08T15:51:53.689Z,21.75
2022-11-08T15:54:24.201Z,23.38
2022-11-08T15:56:54.782Z,22.70
2022-11-08T15:59:28.493Z,23.83
2022-11-08T16:01:59.096Z,23.85
2022-11-08T16:04:29.375Z,23.52
2022-11-08T16:06:58.169Z,23.38
2022-11-08T16:09:26.696Z,23.80
2022-11-08T16:11:55.176Z,22.38
2022-11-08T16:14:26.378Z,22.58
2022-11-08T16:16:54.625Z,24.02
2022-11-08T16:19:25.504Z,24.10
2022-11-08T16:21:54.136Z,22.85
2022-11-08T16:24:22.332Z,24.00
2022-11-08T16:26:51.071Z,24.17
2022-11-08T16:29:25.574Z,23.67
2022-11-08T16:31:54.090Z,24.67
2022-11-08T16:34:22.827Z,25.52
2022-11-08T16:36:52.113Z,26.55
2022-11-08T16:39:26.271Z,24.52
2022-11-08T16:41:54.531Z,24.30
2022-11-08T16:44:24.569Z,22.10
2022-11-08T16:46:55.146Z,24.15
2022-11-08T16:49:26.804Z,22.17
2022-11-08T16:51:55.153Z,26.85
2022-11-08T16:54:28.659Z,27.02
2022-11-08T16:57:13.989Z,27.02
2022-11-08T16:59:46.864Z,25.27
2022-11-08T17:02:22.378Z,26.85
2022-11-08T17:04:50.576Z,25.73
2022-11-08T17:07:19.080Z,28.63
2022-11-08T17:09:47.533Z,27.95
2022-11-08T17:12:15.904Z,28.38
2022-11-08T17:14:44.423Z,27.25
2022-11-08T17:17:15.998Z,26.60
2022-11-08T17:19:44.275Z,26.20
2022-11-08T17:22:12.612Z,25.90
2022-11-08T17:24:41.056Z,26.67
2022-11-08T17:27:09.321Z,25.88
2022-11-08T17:29:37.524Z,27.83
2022-11-08T17:32:06.127Z,25.13
2022-11-08T17:34:36.051Z,26.13
2022-11-08T17:37:04.370Z,27.65
2022-11-08T17:39:33.111Z,25.50
2022-11-08T17:42:01.288Z,26.60
2022-11-08T17:44:29.961Z,25.50
2022-11-08T17:46:58.211Z,25.40
2022-11-08T17:49:26.510Z,26.05
2022-11-08T17:51:56.152Z,26.92
2022-11-08T17:54:24.379Z,25.00
2022-11-08T17:56:52.844Z,25.48
2022-11-08T17:59:21.774Z,26.30
2022-11-08T18:01:50.678Z,25.17
2022-11-08T18:04:19.272Z,25.45
2022-11-08T18:06:47.886Z,26.45
2022-11-08T18:09:17.836Z,25.52
2022-11-08T18:11:48.025Z,25.73
2022-11-08T18:14:16.856Z,24.00
2022-11-08T18:16:45.289Z,24.45
2022-11-08T18:19:13.438Z,25.75
2022-11-08T18:21:41.749Z,25.30
2022-11-08T18:24:10.049Z,27.98
2022-11-08T18:26:40.327Z,26.40
2022-11-08T18:29:08.622Z,22.65
2022-11-08T18:31:37.121Z,21.15
2022-11-08T18:34:05.359Z,23.10
2022-11-08T18:36:33.631Z,24.73
2022-11-08T18:39:02.891Z,25.58
2022-11-08T18:41:32.865Z,25.38
2022-11-08T18:44:02.934Z,25.20
2022-11-08T18:46:40.233Z,26.17
2022-11-08T18:49:10.212Z,26.48
2022-11-08T18:51:38.467Z,27.88
2022-11-08T18:54:06.847Z,26.45
2022-11-08T18:56:35.737Z,23.42
2022-11-08T18:59:05.452Z,24.60
2022-11-08T19:01:33.931Z,24.20
2022-11-08T19:04:02.212Z,25.42
2022-11-08T19:06:30.685Z,26.77
2022-11-08T19:08:59.022Z,28.15
2022-11-08T19:11:30.533Z,26.27
2022-11-08T19:14:02.014Z,27.38
2022-11-08T19:16:32.052Z,23.60
2022-11-08T19:19:01.442Z,25.58
2022-11-08T19:21:30.271Z,27.42
2022-11-08T19:24:00.672Z,27.67
2022-11-08T19:26:30.355Z,25.10
2022-11-08T19:28:59.274Z,24.42
2022-11-08T19:31:27.658Z,24.95
2022-11-08T19:33:57.474Z,26.90
2022-11-08T19:36:28.638Z,25.70
2022-11-08T19:38:58.311Z,24.65
2022-11-08T19:41:28.246Z,25.48
2022-11-08T19:43:56.652Z,25.88
2022-11-08T19:46:26.919Z,22.02
2022-11-08T19:48:57.270Z,24.58
2022-11-08T19:51:27.984Z,26.20
2022-11-08T19:53:56.478Z,27.90
2022-11-08T19:56:43.378Z,29.85
2022-11-08T19:59:12.887Z,26.42
2022-11-08T20:01:41.052Z,24.30
2022-11-08T20:04:12.524Z,26.65
2022-11-08T20:06:41.414Z,26.95
2022-11-08T20:09:10.603Z,29.05
2022-11-08T20:11:41.167Z,28.45
2022-11-08T20:14:10.547Z,24.63
2022-11-08T20:16:42.072Z,28.35
2022-11-08T20:19:14.719Z,27.92
2022-11-08T20:21:46.187Z,26.15
2022-11-08T20:24:16.368Z,26.10
2022-11-08T20:26:45.576Z,25.40
2022-11-08T20:29:14.794Z,26.52
2022-11-08T20:31:43.375Z,25.42
2022-11-08T20:34:13.950Z,29.20
2022-11-08T20:36:44.224Z,27.33
2022-11-08T20:39:13.969Z,27.08
2022-11-08T20:41:42.986Z,24.23
2022-11-08T20:44:11.868Z,25.98
2022-11-08T20:46:40.449Z,25.90
2022-11-08T20:49:09.016Z,25.58
2022-11-08T20:51:38.846Z,27.77
2022-11-08T20:54:08.049Z,27.20
2022-11-08T20:56:36.379Z,26.70
2022-11-08T20:59:04.846Z,26.52
2022-11-08T21:01:34.600Z,29.20
2022-11-08T21:04:03.029Z,27.42
2022-11-08T21:06:35.814Z,25.58
2022-11-08T21:11:55.204Z,26.60
2022-11-08T21:14:24.136Z,26.17
2022-11-08T21:17:20.304Z,26.95
2022-11-08T21:19:40.926Z,26.05
2022-11-08T21:22:17.839Z,25.13
2022-11-08T21:24:48.782Z,25.98
2022-11-08T21:27:17.848Z,26.13
2022-11-08T21:29:46.072Z,26.60
2022-11-08T21:32:14.576Z,26.63
2022-11-08T21:34:46.422Z,27.27
2022-11-08T21:37:16.078Z,29.52
2022-11-08T21:39:44.489Z,27.10
2022-11-08T21:42:14.363Z,27.25
2022-11-08T21:44:42.666Z,28.00
2022-11-08T21:47:11.375Z,25.70
2022-11-08T21:49:39.733Z,25.98
2022-11-08T21:52:08.396Z,27.73
2022-11-08T21:54:36.666Z,26.98
2022-11-08T21:57:04.997Z,26.30
2022-11-08T21:59:34.780Z,29.38
2022-11-08T22:02:03.007Z,28.92
2022-11-08T22:04:31.449Z,27.83
2022-11-08T22:06:59.734Z,27.48
2022-11-08T22:09:27.983Z,28.45
2022-11-08T22:11:56.240Z,28.67
2022-11-08T22:14:24.574Z,27.23
2022-11-08T22:16:54.220Z,27.98
2022-11-08T22:19:22.526Z,27.20
2022-11-08T22:21:50.731Z,26.40
2022-11-08T22:24:20.422Z,26.73
2022-11-08T22:26:49.941Z,25.52
2022-11-08T22:29:19.400Z,25.60
2022-11-08T22:31:47.680Z,25.08
2022-11-08T22:34:18.181Z,28.58
2022-11-08T22:36:46.753Z,27.33
2022-11-08T22:39:15.617Z,27.70
2022-11-08T22:41:44.499Z,29.38
2022-11-08T22:44:13.609Z,26.58
2022-11-08T22:46:42.433Z,27.13
2022-11-08T22:49:11.480Z,28.00
2022-11-08T22:51:41.932Z,27.50
2022-11-08T22:54:10.827Z,26.10
2022-11-08T22:56:40.403Z,27.17
2022-11-08T22:59:08.970Z,28.13
2022-11-08T23:01:37.722Z,28.20
2022-11-08T23:04:05.859Z,26.52
2022-11-08T23:06:34.215Z,27.10
2022-11-08T23:09:03.969Z,28.27
2022-11-08T23:11:49.138Z,27.13
2022-11-08T23:14:37.549Z,27.38
2022-11-08T23:17:08.299Z,27.98
2022-11-08T23:19:53.589Z,28.42
2022-11-08T23:22:45.125Z,25.90
2022-11-08T23:25:14.816Z,26.25
2022-11-08T23:28:00.188Z,25.40
2022-11-08T23:30:45.587Z,26.05
2022-11-08T23:33:13.956Z,27.90
2022-11-08T23:36:03.020Z,27.60
2022-11-08T23:38:31.369Z,26.30
2022-11-08T23:41:22.177Z,27.38
2022-11-08T23:44:07.920Z,25.58
2022-11-08T23:46:36.162Z,25.17
2022-11-08T23:49:04.797Z,26.15
2022-11-08T23:51:33.084Z,25.42
2022-11-08T23:54:01.452Z,25.42
2022-11-08T23:56:31.292Z,26.38
2022-11-08T23:59:01.054Z,25.67
